ADDS METAR Data INFO
IDs: Format: Raw Decoded Include TAF

Data at: 2146 UTC 15 Dec 2017

KORF 152051Z 30008KT 10SM CLR 07/01 A2988 RMK AO2 SLP117 T00670011 53016
KORF 151951Z 34005KT 10SM FEW015 07/03 A2985 RMK AO2 SLP106 T00720028
KORF 151851Z 31008KT 10SM FEW022 BKN034 OVC046 10/05 A2983 RMK AO2 SLP101 T01000050
KORF 151847Z 28006KT 10SM FEW022 BKN032 OVC041 10/05 A2983 RMK AO2
KORF 151751Z 12006KT 10SM BKN024 BKN030 OVC037 11/06 A2985 RMK AO2 SLP108 T01110061 10111 20028 56033
KORF 151651Z 11009KT 10SM BKN024 OVC033 11/05 A2990 RMK AO2 SLP123 T01060050
KORF 151649Z 11006KT 10SM BKN024 OVC033 11/05 A2990 RMK AO2
KORF 151551Z 11008KT 10SM FEW023 10/04 A2995 RMK AO2 SLP141 T01000044
KORF 151451Z 00000KT 10SM CLR 08/03 A2998 RMK AO2 SLP152 T00780028 56020
KORF 151351Z 03009KT 10SM CLR 04/01 A3000 RMK AO2 SLP157 T00440011
KORF 151251Z 03011KT 10SM CLR 03/00 A3002 RMK AO2 SLP164 T00330000
KORF 151151Z 04012KT 10SM CLR 03/M02 A3004 RMK AO2 SLP172 T00281017 10033 20022 56005
KORF 151051Z 04012KT 10SM CLR 03/M03 A3005 RMK AO2 SLP175 T00281028
KORF 150951Z 04015KT 10SM CLR 03/M03 A3005 RMK AO2 SLP174 T00281033
KORF 150851Z 03014KT 10SM CLR 03/M03 A3006 RMK AO2 SLP177 T00331033 58005
KORF 150751Z 04014KT 10SM CLR 03/M03 A3007 RMK AO2 SLP181 T00331033
KORF 150651Z 03013KT 10SM CLR 03/M04 A3008 RMK AO2 SLP184 T00331039
KORF 150551Z 03015KT 10SM CLR 03/M06 A3007 RMK AO2 SLP182 T00331056 10056 20033 58001
KORF 150451Z 05011KT 10SM CLR 03/M06 A3008 RMK AO2 SLP184 T00331061 401220028
KORF 150351Z 05011KT 10SM CLR 03/M06 A3009 RMK AO2 SLP189 T00331056
KORF 150251Z 06011KT 10SM CLR 04/M05 A3007 RMK AO2 SLP183 T00391050 51024
KORF 150151Z 04010KT 10SM CLR 04/M04 A3006 RMK AO2 SLP178 T00441039
KORF 150051Z 04012KT 10SM CLR 05/M03 A3004 RMK AO2 SLP171 T00501028
KORF 142351Z 03014KT 10SM CLR 06/M02 A3000 RMK AO2 SLP160 T00561022 10122 20056 51035
KORF 142251Z 03015KT 10SM CLR 06/M01 A2998 RMK AO2 SLP150 T00611011
KORF 142151Z 03015KT 10SM CLR 06/00 A2993 RMK AO2 SLP135 T00610000
KORF 142051Z 03013KT 10SM CLR 08/M01 A2990 RMK AO2 SLP124 T00831011 53027
KORF 141951Z 03013KT 10SM CLR 09/M02 A2987 RMK AO2 SLP115 T00941017
KORF 141851Z 02013KT 10SM CLR 10/M01 A2984 RMK AO2 SLP104 T01001006
KORF 141751Z 34006KT 10SM CLR 12/M04 A2982 RMK AO2 SLP097 T01171039 10122 20044 51015
KORF 141651Z 30008KT 270V340 10SM CLR 12/M03 A2980 RMK AO2 SLP091 T01171033
KORF 141551Z VRB04KT 10SM CLR 11/M04 A2979 RMK AO2 SLP088 T01061039
KORF 141451Z 24010G17KT 10SM CLR 09/M05 A2977 RMK AO2 SLP082 T00891050 53026
KORF 141351Z 24011KT 10SM CLR 06/M06 A2974 RMK AO2 SLP070 T00611056
KORF 141251Z 24012G18KT 10SM CLR 04/M06 A2972 RMK AO2 SLP062 T00441056
KORF 141151Z 24011KT 10SM CLR 04/M06 A2970 RMK AO2 SLP056 T00441061 10044 20033 53025
KORF 141051Z 23015KT 10SM CLR 04/M06 A2965 RMK AO2 SLP040 T00441061
KORF 140951Z 22016G22KT 10SM CLR 04/M06 A2962 RMK AO2 SLP030 T00441061